Time;durP1;ratioP1;P1;durP2;ratioP2;P2;SDS_P1;SDS_P2;PMS_P1;PMS_P2;Temp;Humidity;BMP_temperature;BMP_pressure;BME280_temperature;BME280_humidity;BME280_pressure;Samples;Min_cycle;Max_cycle;Signal;HPM_P1;HPM_P2
2022/01/17 00:03:24;;;;;;;128.23;68.40;;;;;;;-3.72;76.14;98112.75;10403766;28;20067;-57
2022/01/17 00:08:23;;;;;;;115.13;61.40;;;;;;;-3.67;75.95;98111.34;10404327;28;20076;-57
2022/01/17 00:13:29;;;;;;;;;;;;;;;-3.76;76.25;98117.63;10404846;28;20476;-57
2022/01/17 00:23:36;;;;;;;100.15;52.55;;;;;;;-3.70;75.62;98103.56;10405655;28;20067;-57
2022/01/17 00:28:35;;;;;;;91.85;46.53;;;;;;;-3.63;75.60;98120.91;10409925;28;20062;-57
2022/01/17 00:33:35;;;;;;;88.63;45.63;;;;;;;-3.58;74.58;98114.44;10397354;28;20073;-57
2022/01/17 00:38:34;;;;;;;71.38;35.88;;;;;;;-3.67;74.50;98088.53;10371011;28;20064;-57
2022/01/17 00:43:34;;;;;;;72.30;38.45;;;;;;;-3.54;74.18;98101.16;10373243;28;20072;-57
2022/01/17 00:48:33;;;;;;;87.13;44.97;;;;;;;-3.52;74.04;98101.25;10375732;28;20555;-57
2022/01/17 00:53:36;;;;;;;67.15;34.42;;;;;;;-3.44;73.75;98093.28;10411497;28;20075;-57
2022/01/17 00:58:35;;;;;;;80.07;40.78;;;;;;;-3.42;73.66;98090.88;10407845;28;20064;-57
2022/01/17 01:03:34;;;;;;;95.85;47.05;;;;;;;-3.40;73.61;98095.25;10372707;28;20032;-57
2022/01/17 01:08:33;;;;;;;92.53;44.20;;;;;;;-3.36;73.46;98102.25;10372335;28;20693;-57
2022/01/17 01:13:33;;;;;;;106.32;51.47;;;;;;;-3.33;72.69;98088.88;10371930;28;20724;-57
2022/01/17 01:28:50;;;;;;;89.57;45.13;;;;;;;-3.44;73.14;98069.59;10419606;28;20444;-57
2022/01/17 01:33:54;;;;;;;93.47;46.72;;;;;;;-3.47;73.26;98067.75;10419074;28;20563;-57
2022/01/17 01:38:53;;;;;;;87.20;45.50;;;;;;;-3.55;73.55;98052.09;10419952;28;20487;-57
2022/01/17 01:43:52;;;;;;;;;;;;;;;-3.48;73.66;98052.44;10417405;28;20154;-57
2022/01/17 01:48:51;;;;;;;53.17;27.75;;;;;;;-3.43;72.74;98051.94;10417744;28;19934;-57
2022/01/17 01:53:50;;;;;;;47.55;25.08;;;;;;;-3.31;72.68;98063.59;10419387;28;20072;-57
2022/01/17 01:58:49;;;;;;;46.63;24.35;;;;;;;-3.26;71.93;98044.41;10420700;28;20098;-57
2022/01/17 02:03:49;;;;;;;31.88;17.13;;;;;;;-3.11;71.10;98052.91;10419971;28;20509;-57
2022/01/17 02:08:47;;;;;;;;;;;;;;;-2.85;70.65;98041.69;10418494;28;20070;-57
2022/01/17 02:13:47;;;;;;;28.60;14.57;;;;;;;-2.64;69.71;98053.81;10418508;28;19913;-57
2022/01/17 02:18:45;;;;;;;;;;;;;;;-2.51;68.19;98030.84;10419479;28;20201;-57
2022/01/17 02:23:51;;;;;;;20.60;10.77;;;;;;;-2.35;67.77;98035.09;10418731;28;20741;-57
2022/01/17 02:28:54;;;;;;;20.55;11.18;;;;;;;-2.18;66.49;98039.41;10417821;28;20067;-57
2022/01/17 02:33:53;;;;;;;18.42;9.27;;;;;;;-2.01;65.70;98039.41;10418914;28;20803;-57
2022/01/17 02:38:52;;;;;;;;;;;;;;;-1.82;64.41;98029.44;10418983;28;20068;-57
2022/01/17 02:43:51;;;;;;;18.15;9.55;;;;;;;-1.58;63.79;98031.47;10412153;28;20011;-57
2022/01/17 02:48:50;;;;;;;24.25;11.43;;;;;;;-1.54;62.59;98041.88;10418002;28;20086;-57
2022/01/17 02:53:50;;;;;;;24.73;14.07;;;;;;;-1.48;62.97;98036.22;10416340;28;20086;-57
2022/01/17 02:58:49;;;;;;;27.83;15.95;;;;;;;-1.61;62.08;98023.66;10415971;28;20067;-57
2022/01/17 03:03:48;;;;;;;32.03;17.48;;;;;;;-1.35;62.58;98040.25;10416862;28;20475;-57
2022/01/17 03:08:47;;;;;;;;;;;;;;;-1.36;61.51;98044.47;10413681;28;20066;-57
2022/01/17 03:13:48;;;;;;;42.85;24.58;;;;;;;-1.29;62.10;98056.69;10416927;28;19959;-57
2022/01/17 03:18:51;;;;;;;36.53;19.70;;;;;;;-1.35;62.50;98056.41;10416050;28;20072;-57
2022/01/17 03:23:51;;;;;;;40.10;21.63;;;;;;;-1.39;62.40;98058.72;10416493;28;20071;-57
2022/01/17 03:28:50;;;;;;;26.30;14.13;;;;;;;-1.50;62.21;98048.00;10415808;28;20068;-57
2022/01/17 03:33:49;;;;;;;25.52;15.23;;;;;;;-1.50;63.08;98056.50;10415953;28;20052;-57
2022/01/17 03:38:50;;;;;;;22.23;13.73;;;;;;;-1.54;62.03;98061.34;10411438;28;20028;-57
2022/01/17 03:43:49;;;;;;;20.52;11.88;;;;;;;-1.56;61.96;98062.94;10415803;28;20060;-57
2022/01/17 03:48:48;;;;;;;20.40;11.90;;;;;;;-1.51;62.59;98054.75;10416184;28;20099;-57
2022/01/17 03:53:47;;;;;;;25.10;12.82;;;;;;;-1.45;62.25;98064.38;10415567;28;20064;-57
2022/01/17 03:58:47;;;;;;;17.42;9.90;;;;;;;-1.43;62.94;98071.28;10413985;28;20064;-57
2022/01/17 04:03:46;;;;;;;19.08;10.25;;;;;;;-1.44;64.01;98058.50;10415045;28;20067;-57
2022/01/17 04:08:45;;;;;;;21.15;10.65;;;;;;;-1.58;64.10;98032.34;10414587;28;20063;-57
2022/01/17 04:13:45;;;;;;;25.52;12.95;;;;;;;-1.34;64.15;98070.00;10414242;28;20400;-57
2022/01/17 04:18:44;;;;;;;25.40;14.25;;;;;;;-1.36;63.87;98076.69;10411915;28;20072;-57
2022/01/17 04:23:43;;;;;;;17.00;9.20;;;;;;;-1.32;64.37;98083.69;10413627;28;20035;-57
2022/01/17 04:28:42;;;;;;;25.20;14.00;;;;;;;-1.29;63.92;98089.81;10414477;28;20032;-57
2022/01/17 04:33:41;;;;;;;24.95;15.20;;;;;;;-1.28;64.57;98101.75;10414870;28;20123;-57
2022/01/17 04:38:40;;;;;;;19.55;12.23;;;;;;;-1.33;64.34;98102.28;10396648;28;20079;-57
2022/01/17 04:48:38;;;;;;;25.33;15.68;;;;;;;-1.34;64.58;98103.97;10374131;28;20075;-57
2022/01/17 04:53:39;;;;;;;35.55;20.08;;;;;;;-1.39;64.88;98096.91;10385519;28;20707;-57
2022/01/17 04:58:38;;;;;;;90.38;52.30;;;;;;;-1.59;64.76;98095.88;10400189;28;20056;-59
2022/01/17 05:03:37;;;;;;;72.70;37.85;;;;;;;-1.57;65.93;98092.59;10425338;28;20050;-56
2022/01/17 05:08:36;;;;;;;59.72;32.17;;;;;;;-1.50;65.41;98088.72;10427578;28;20777;-56
2022/01/17 05:13:37;;;;;;;62.05;34.40;;;;;;;-1.59;66.38;98090.78;10420096;28;20052;-56
2022/01/17 05:23:35;;;;;;;88.70;46.13;;;;;;;-1.79;66.74;98094.84;10392842;28;21451;-57
2022/01/17 05:28:34;;;;;;;71.57;38.55;;;;;;;-1.87;67.82;98084.25;10424828;28;20075;-56
2022/01/17 05:33:33;;;;;;;63.30;36.60;;;;;;;-1.90;68.19;98084.09;10425958;28;20048;-56
2022/01/17 05:38:32;;;;;;;64.93;36.17;;;;;;;-1.90;68.16;98089.19;10406625;28;20040;-57
2022/01/17 05:43:31;;;;;;;;;;;;;;;-1.96;68.64;98093.94;10425155;28;20507;-57
2022/01/17 05:48:30;;;;;;;71.07;39.88;;;;;;;-2.09;69.46;98100.91;10421288;28;19922;-57
2022/01/17 05:53:29;;;;;;;118.82;65.20;;;;;;;-2.11;69.47;98106.72;10421105;28;20074;-56
2022/01/17 05:58:28;;;;;;;76.05;40.85;;;;;;;-2.20;69.63;98089.28;10416578;28;20033;-59
2022/01/17 06:03:27;;;;;;;66.07;38.00;;;;;;;-2.08;69.83;98110.31;10415176;28;20419;-57
2022/01/17 06:08:26;;;;;;;56.30;31.33;;;;;;;-2.11;69.34;98079.59;10412536;28;20038;-57
2022/01/17 06:13:25;;;;;;;78.65;44.13;;;;;;;-1.92;70.01;98113.66;10410322;28;20082;-56
2022/01/17 06:18:24;;;;;;;;;;;;;;;-1.86;69.39;98114.00;10423481;28;20060;-56
2022/01/17 06:23:25;;;;;;;67.10;36.45;;;;;;;-1.76;69.04;98103.50;10425804;28;20352;-57
2022/01/17 06:28:24;;;;;;;61.55;33.58;;;;;;;-1.60;69.54;98117.91;10414327;28;20598;-56
2022/01/17 06:33:23;;;;;;;49.97;31.50;;;;;;;-1.38;69.20;98111.38;10414543;28;20514;-56
2022/01/17 06:38:22;;;;;;;74.35;41.42;;;;;;;-1.26;68.78;98115.44;10417271;28;20067;-56
2022/01/17 06:43:22;;;;;;;66.75;38.47;;;;;;;-1.11;68.39;98109.38;10410958;28;20045;-56
2022/01/17 06:48:21;;;;;;;77.55;45.90;;;;;;;-1.11;68.75;98111.91;10395109;28;20080;-57
2022/01/17 06:53:20;;;;;;;95.88;55.85;;;;;;;-1.06;68.17;98113.88;10413912;28;20028;-56
2022/01/17 06:58:19;;;;;;;123.95;71.20;;;;;;;-1.10;68.39;98085.63;10415838;28;20044;-57
2022/01/17 07:03:18;;;;;;;129.90;78.80;;;;;;;-0.80;68.86;98102.44;10396348;28;20074;-57
2022/01/17 07:08:16;;;;;;;141.70;83.78;;;;;;;-0.73;68.73;98102.75;10415500;28;20039;-57
2022/01/17 07:13:15;;;;;;;149.68;87.63;;;;;;;-0.61;68.66;98100.78;10392168;28;20495;-57
2022/01/17 07:18:14;;;;;;;147.65;89.72;;;;;;;-0.42;68.71;98090.66;10430011;28;20041;-57
2022/01/17 07:23:14;;;;;;;102.00;58.58;;;;;;;-0.32;68.30;98101.28;10415561;28;20035;-58
2022/01/17 07:28:13;;;;;;;89.78;53.75;;;;;;;-0.18;67.73;98118.13;10414845;28;20064;-57
2022/01/17 07:33:13;;;;;;;95.88;56.40;;;;;;;0.09;67.29;98092.13;10413926;28;20467;-57
2022/01/17 07:38:12;;;;;;;;;;;;;;;0.26;66.66;98081.00;10381286;28;20068;-57
2022/01/17 07:43:12;;;;;;;57.60;35.83;;;;;;;0.45;65.43;98055.50;10388334;28;19909;-57
2022/01/17 07:48:44;;;;;;;65.82;38.00;;;;;;;0.92;62.21;98067.66;10414538;28;20095;-57
2022/01/17 07:53:30;;;;;;;36.15;18.85;;;;;;;1.17;58.52;98054.19;10412882;28;20538;-57
2022/01/17 07:58:28;;;;;;;13.80;7.53;;;;;;;1.79;55.07;98129.16;10413541;28;20476;-57
2022/01/17 08:03:27;;;;;;;11.63;7.00;;;;;;;2.31;53.63;98137.13;10392477;28;20036;-56
2022/01/17 08:08:26;;;;;;;15.18;6.95;;;;;;;2.85;51.51;98115.16;10410480;28;20484;-56
2022/01/17 08:13:25;;;;;;;9.80;5.72;;;;;;;3.21;49.96;98043.72;10412440;28;20059;-56
2022/01/17 08:18:24;;;;;;;9.43;5.28;;;;;;;3.50;50.39;98051.50;10413143;28;20028;-56
2022/01/17 08:23:24;;;;;;;9.45;5.22;;;;;;;3.69;50.79;98058.94;10412502;28;20059;-56
2022/01/17 08:28:23;;;;;;;;;;;;;;;3.81;48.19;98133.75;10412186;28;20056;-57
2022/01/17 08:33:23;;;;;;;13.10;5.50;;;;;;;4.05;48.45;98161.88;10411899;28;19928;-57
2022/01/17 08:38:23;;;;;;;11.00;5.60;;;;;;;4.31;48.01;98145.53;10375150;28;20526;-57
2022/01/17 08:43:22;;;;;;;10.23;5.53;;;;;;;4.59;47.88;98130.09;10388484;28;20048;-57
2022/01/17 08:48:21;;;;;;;7.82;4.82;;;;;;;4.78;45.75;98090.34;10412340;28;20028;-57
2022/01/17 08:53:20;;;;;;;10.60;5.22;;;;;;;4.93;46.01;98017.91;10409475;28;20056;-57
2022/01/17 08:58:19;;;;;;;12.40;5.82;;;;;;;5.20;45.85;98043.47;10408347;28;20028;-57
2022/01/17 09:03:19;;;;;;;9.60;5.20;;;;;;;5.43;45.30;98010.56;10408592;28;20124;-58
2022/01/17 09:08:19;;;;;;;13.60;6.80;;;;;;;5.64;43.59;98006.75;10409185;28;20064;-58
2022/01/17 09:13:18;;;;;;;10.38;6.95;;;;;;;5.89;43.91;97993.59;10411270;28;20496;-58
2022/01/17 09:18:19;;;;;;;13.65;6.55;;;;;;;6.01;43.57;97999.84;10411781;28;20064;-58
2022/01/17 09:23:18;;;;;;;14.27;7.57;;;;;;;6.17;43.27;97970.97;10402362;28;20063;-58
2022/01/17 09:28:17;;;;;;;;;;;;;;;6.12;42.39;97996.66;10411661;28;20060;-58
2022/01/17 09:33:16;;;;;;;10.77;6.05;;;;;;;6.10;43.01;98005.19;10410814;28;19916;-58
2022/01/17 09:38:15;;;;;;;12.07;6.72;;;;;;;5.90;41.96;98000.47;10416172;28;20071;-58
2022/01/17 09:43:14;;;;;;;33.05;17.42;;;;;;;6.16;42.58;98041.34;10417999;28;20082;-58
2022/01/17 09:48:19;;;;;;;18.10;8.80;;;;;;;6.37;43.45;98036.69;10418635;28;20024;-58
2022/01/17 09:53:19;;;;;;;18.50;9.38;;;;;;;6.38;42.86;98033.25;10418065;28;20064;-58
2022/01/17 09:58:18;;;;;;;11.02;6.22;;;;;;;6.35;42.23;98053.81;10418644;28;20064;-58
2022/01/17 10:03:17;;;;;;;30.52;16.35;;;;;;;6.21;43.54;98055.25;10417991;28;20575;-58
2022/01/17 10:08:17;;;;;;;13.40;7.68;;;;;;;5.90;44.58;98067.41;10417455;28;20060;-58
2022/01/17 10:13:27;;;;;;;11.20;6.22;;;;;;;5.92;43.69;98067.47;10418085;28;20473;-58
2022/01/17 10:18:33;;;;;;;17.42;10.57;;;;;;;5.79;44.56;98052.56;10417533;28;20468;-58
2022/01/17 10:39:06;;;;;;;13.32;8.63;;;;;;;6.12;43.45;98040.44;10416754;28;20056;-58
2022/01/17 10:44:06;;;;;;;20.15;10.93;;;;;;;6.25;42.87;98032.97;10446861;28;20074;-58
2022/01/17 10:49:04;;;;;;;25.70;13.18;;;;;;;6.42;43.82;98017.81;10457020;28;20071;-58
2022/01/17 10:54:17;;;;;;;25.35;12.45;;;;;;;6.47;43.56;98013.63;10446000;28;20028;-58
2022/01/17 10:59:28;;;;;;;17.15;11.20;;;;;;;6.53;44.20;98017.19;10417820;28;20064;-58
2022/01/17 11:04:35;;;;;;;16.45;10.68;;;;;;;6.58;45.20;98012.13;10415350;28;20514;-58
2022/01/17 11:09:39;;;;;;;18.38;10.88;;;;;;;6.55;45.67;98004.34;10414439;28;20064;-58
2022/01/17 11:14:40;;;;;;;17.23;10.73;;;;;;;6.64;45.51;98003.66;10426396;28;20523;-58
2022/01/17 11:24:57;;;;;;;15.48;9.68;;;;;;;6.52;45.08;97978.50;10415091;28;20060;-58
2022/01/17 11:29:57;;;;;;;17.25;10.85;;;;;;;6.42;45.02;97971.44;10413887;28;20067;-58
2022/01/17 11:34:58;;;;;;;19.42;10.93;;;;;;;6.59;46.59;97978.66;10411977;28;20475;-58
2022/01/17 11:39:58;;;;;;;16.73;10.73;;;;;;;6.66;46.08;97977.06;10412994;28;20071;-58
2022/01/17 11:44:57;;;;;;;;;;;;;;;6.62;46.05;97975.25;10414374;28;20517;-58
2022/01/17 11:49:58;;;;;;;12.80;8.50;;;;;;;6.43;45.99;97948.28;10413855;28;20281;-58
2022/01/17 11:54:57;;;;;;;16.75;8.75;;;;;;;6.61;46.08;97953.75;10413613;28;20566;-58
2022/01/17 12:00:01;;;;;;;15.70;10.82;;;;;;;6.61;46.16;97938.28;10454771;28;20024;-58
2022/01/17 12:05:06;;;;;;;14.60;8.98;;;;;;;6.69;46.00;97934.97;10453669;28;20098;-58
2022/01/17 12:10:17;;;;;;;15.20;9.27;;;;;;;6.63;46.04;97933.13;10454422;28;20059;-58
2022/01/17 12:15:17;;;;;;;17.52;9.15;;;;;;;6.61;46.87;97952.91;10454630;28;20059;-58
2022/01/17 12:20:19;;;;;;;;;;;;;;;6.54;47.21;97933.88;10454089;28;20068;-58
2022/01/17 12:25:29;;;;;;;13.93;9.32;;;;;;;6.36;46.77;97944.69;10453999;28;20386;-58
2022/01/17 12:30:52;;;;;;;12.73;8.38;;;;;;;6.43;48.20;97934.53;10454253;28;20468;-58
2022/01/17 12:35:51;;;;;;;15.13;8.98;;;;;;;6.33;47.58;97934.34;10435222;28;20132;-58
2022/01/17 12:40:50;;;;;;;15.70;9.23;;;;;;;6.39;47.56;97905.22;10453450;28;20032;-58
2022/01/17 12:45:59;;;;;;;15.88;8.68;;;;;;;6.35;47.71;97886.28;10453632;28;20484;-58
2022/01/17 12:51:01;;;;;;;15.48;8.38;;;;;;;6.50;47.62;97898.56;10453317;28;20071;-58
2022/01/17 12:56:08;;;;;;;13.90;8.70;;;;;;;6.38;47.42;97878.59;10453822;28;20466;-59
2022/01/17 13:01:08;;;;;;;15.00;8.32;;;;;;;6.55;46.77;97865.97;10453940;28;20067;-59
2022/01/17 13:06:13;;;;;;;14.45;8.95;;;;;;;6.53;47.47;97833.28;10453254;28;20075;-59
2022/01/17 13:11:13;;;;;;;12.13;7.40;;;;;;;6.63;46.14;97842.88;10454094;28;20079;-59
2022/01/17 13:16:13;;;;;;;13.13;8.02;;;;;;;6.56;46.61;97846.22;10460875;28;20068;-60
2022/01/17 13:21:13;;;;;;;14.38;8.55;;;;;;;6.52;46.46;97834.13;10442755;28;20064;-59
2022/01/17 13:26:18;;;;;;;15.20;9.30;;;;;;;6.47;46.62;97802.25;10461458;28;20068;-59
2022/01/17 13:31:18;;;;;;;17.10;8.77;;;;;;;6.33;46.28;97802.91;10460048;28;20513;-59
2022/01/17 13:36:23;;;;;;;14.07;9.20;;;;;;;6.35;45.95;97780.59;10460696;28;20435;-58
2022/01/17 13:41:29;;;;;;;18.40;10.50;;;;;;;6.31;46.42;97780.53;10460399;28;20074;-58
2022/01/17 13:46:28;;;;;;;14.52;8.68;;;;;;;6.22;47.15;97760.63;10459564;28;20084;-58
2022/01/17 13:51:28;;;;;;;11.23;7.65;;;;;;;6.07;46.47;97768.97;10459390;28;20044;-59
2022/01/17 13:56:36;;;;;;;12.73;8.38;;;;;;;6.04;47.18;97763.75;10459675;28;20056;-59
2022/01/17 14:01:37;;;;;;;13.98;8.45;;;;;;;5.97;47.29;97767.94;10441224;28;20114;-59
2022/01/17 14:06:38;;;;;;;16.63;9.13;;;;;;;5.93;47.56;97771.31;10458999;28;20091;-59
2022/01/17 14:11:40;;;;;;;14.50;8.95;;;;;;;5.74;47.54;97748.63;10459268;28;20070;-59
2022/01/17 14:16:41;;;;;;;13.70;8.73;;;;;;;5.67;47.16;97763.13;10458853;28;20071;-59
2022/01/17 14:21:49;;;;;;;12.85;7.72;;;;;;;5.55;47.57;97745.75;10457722;28;20075;-58
2022/01/17 14:26:49;;;;;;;14.43;8.05;;;;;;;5.33;48.20;97751.31;10457720;28;20078;-59
2022/01/17 14:31:51;;;;;;;17.73;9.90;;;;;;;5.21;48.49;97736.50;10458269;28;20079;-59
2022/01/17 14:37:19;;;;;;;16.67;9.23;;;;;;;5.07;48.81;97733.66;10458469;28;20048;-59
2022/01/17 14:42:34;;;;;;;16.63;8.75;;;;;;;4.83;48.67;97753.66;10442610;28;20067;-59
2022/01/17 14:47:42;;;;;;;18.63;10.82;;;;;;;4.74;49.24;97759.50;10416638;28;20472;-59
2022/01/17 14:52:42;;;;;;;15.77;10.00;;;;;;;4.64;49.81;97766.13;10416448;28;20499;-59
2022/01/17 15:08:03;;;;;;;20.35;10.93;;;;;;;4.16;50.38;97759.00;10415718;28;20071;-59
2022/01/17 15:13:06;;;;;;;24.10;13.82;;;;;;;4.08;50.94;97765.66;10415550;28;20611;-59
2022/01/17 15:18:13;;;;;;;21.73;13.68;;;;;;;3.97;51.09;97770.53;10414371;28;20072;-59
2022/01/17 15:23:13;;;;;;;15.35;10.27;;;;;;;3.87;51.22;97755.72;10415297;28;20407;-58
2022/01/17 15:28:12;;;;;;;16.02;10.18;;;;;;;3.75;50.99;97748.59;10414374;28;20060;-59
2022/01/17 15:33:11;;;;;;;15.65;9.73;;;;;;;3.75;50.86;97766.56;10413860;28;20087;-58
2022/01/17 15:38:11;;;;;;;17.15;10.23;;;;;;;3.76;51.17;97769.97;10414314;28;20039;-59
2022/01/17 15:43:10;;;;;;;17.05;10.43;;;;;;;3.66;51.30;97761.19;10413694;28;20440;-59
2022/01/17 15:48:09;;;;;;;;;;;;;;;3.72;51.22;97781.84;10414446;28;20500;-58
2022/01/17 15:53:08;;;;;;;11.02;7.10;;;;;;;3.61;51.56;97752.47;10428119;28;19951;-58
2022/01/17 15:58:07;;;;;;;15.55;9.32;;;;;;;3.47;51.31;97733.28;10455215;28;20107;-59
2022/01/17 16:03:06;;;;;;;17.05;10.45;;;;;;;3.46;51.68;97719.59;10455164;28;20039;-59
2022/01/17 16:08:05;;;;;;;12.93;8.30;;;;;;;3.35;51.67;97726.13;10435944;28;20040;-58
2022/01/17 16:13:04;;;;;;;14.75;8.15;;;;;;;3.28;51.77;97740.47;10454788;28;20063;-59
2022/01/17 16:18:03;;;;;;;14.85;7.97;;;;;;;3.17;51.48;97732.50;10454251;28;20027;-58
2022/01/17 16:23:02;;;;;;;14.13;9.57;;;;;;;3.12;51.89;97726.38;10435942;28;20635;-59
2022/01/17 16:28:01;;;;;;;19.80;10.57;;;;;;;3.14;51.90;97740.09;10453046;28;20036;-58
2022/01/17 16:33:01;;;;;;;18.40;11.20;;;;;;;3.10;52.02;97732.31;10414895;28;20044;-58
2022/01/17 16:38:00;;;;;;;17.67;10.75;;;;;;;3.09;52.75;97735.66;10411327;28;20147;-58
2022/01/17 16:43:00;;;;;;;15.98;9.43;;;;;;;3.09;52.98;97753.63;10411950;28;20530;-59
2022/01/17 16:48:00;;;;;;;13.60;8.27;;;;;;;3.09;52.31;97757.03;10410686;28;20187;-58
2022/01/17 16:53:00;;;;;;;18.73;11.60;;;;;;;3.15;52.67;97752.09;10411824;28;20074;-58
2022/01/17 16:57:59;;;;;;;19.50;11.77;;;;;;;3.16;52.84;97746.13;10410922;28;20496;-59
2022/01/17 17:02:57;;;;;;;14.93;8.02;;;;;;;3.18;52.44;97746.19;10411625;28;21177;-58
2022/01/17 17:07:57;;;;;;;13.25;7.20;;;;;;;3.09;51.95;97745.94;10410204;28;20031;-58
2022/01/17 17:12:56;;;;;;;14.02;8.05;;;;;;;3.25;51.71;97771.16;10411255;28;20064;-58
2022/01/17 17:17:55;;;;;;;14.93;8.65;;;;;;;3.18;51.59;97756.44;10411752;28;20120;-59
2022/01/17 17:22:54;;;;;;;14.52;8.00;;;;;;;3.32;51.75;97765.38;10392750;28;20040;-58
2022/01/17 17:27:53;;;;;;;15.45;8.15;;;;;;;3.31;51.58;97773.91;10410487;28;20056;-59
2022/01/17 17:32:52;;;;;;;18.20;8.57;;;;;;;3.40;51.38;97758.78;10401453;28;20044;-59
2022/01/17 17:37:51;;;;;;;14.80;8.40;;;;;;;3.46;51.33;97744.38;10425759;28;20039;-58
2022/01/17 17:42:51;;;;;;;11.93;7.82;;;;;;;3.46;50.86;97744.38;10410744;28;20033;-59
2022/01/17 17:47:50;;;;;;;14.60;8.77;;;;;;;3.55;50.74;97757.47;10410457;28;20057;-59
2022/01/17 17:52:50;;;;;;;;;;;;;;;3.56;50.69;97759.19;10409676;28;20768;-59
2022/01/17 17:57:49;;;;;;;17.67;8.43;;;;;;;3.58;50.48;97760.09;10411640;28;19950;-58
2022/01/17 18:02:50;;;;;;;13.77;7.90;;;;;;;3.63;50.27;97759.38;10417751;28;20056;-58
2022/01/17 18:07:49;;;;;;;9.90;5.68;;;;;;;3.60;49.86;97756.72;10416986;28;20529;-58
2022/01/17 18:12:48;;;;;;;10.00;5.80;;;;;;;3.67;50.04;97750.06;10417241;28;20052;-58
2022/01/17 18:17:47;;;;;;;8.70;4.72;;;;;;;3.64;49.33;97712.38;10417216;28;20029;-59
2022/01/17 18:22:46;;;;;;;11.35;6.35;;;;;;;3.79;49.41;97709.31;10415846;28;20083;-59
2022/01/17 18:27:45;;;;;;;7.53;4.80;;;;;;;3.78;49.81;97712.72;10416753;28;20033;-59
2022/01/17 18:32:44;;;;;;;9.88;5.78;;;;;;;3.67;49.04;97706.44;10416670;28;20080;-59
2022/01/17 18:37:44;;;;;;;9.45;5.63;;;;;;;3.68;49.26;97703.03;10416406;28;20399;-58
2022/01/17 18:42:43;;;;;;;7.07;4.40;;;;;;;3.75;49.39;97704.97;10419852;28;20051;-59
2022/01/17 18:47:43;;;;;;;9.20;5.05;;;;;;;3.78;48.77;97702.47;10458097;28;20052;-60
2022/01/17 18:52:47;;;;;;;8.70;5.20;;;;;;;3.84;48.70;97704.28;10421292;28;20060;-58
2022/01/17 18:57:46;;;;;;;10.35;5.65;;;;;;;3.76;49.34;97673.31;10415524;28;20078;-58
2022/01/17 19:02:46;;;;;;;9.00;5.35;;;;;;;3.83;48.99;97692.31;10415522;28;20056;-58
2022/01/17 19:07:45;;;;;;;9.82;5.50;;;;;;;3.78;49.21;97689.63;10413781;28;20067;-58
2022/01/17 19:12:44;;;;;;;11.25;5.32;;;;;;;3.80;48.22;97685.41;10414264;28;20024;-59
2022/01/17 19:23:03;;;;;;;;;;;;;;;3.93;48.81;97671.16;10456842;28;20059;-60
2022/01/17 19:28:02;;;;;;;10.60;5.70;;;;;;;3.96;48.01;97696.03;10455897;28;19916;-60
2022/01/17 19:33:02;;;;;;;10.30;5.30;;;;;;;3.96;48.40;97698.59;10439198;28;20087;-60
2022/01/17 19:38:02;;;;;;;7.85;4.93;;;;;;;3.93;48.36;97688.25;10413914;28;20067;-60
2022/01/17 19:43:02;;;;;;;8.82;5.00;;;;;;;4.02;47.47;97701.31;10413480;28;20067;-60
2022/01/17 19:48:01;;;;;;;9.27;5.50;;;;;;;4.10;47.34;97724.59;10413553;28;20060;-60
2022/01/17 19:53:00;;;;;;;9.70;6.07;;;;;;;4.13;47.75;97728.13;10395659;28;20025;-60
2022/01/17 19:57:59;;;;;;;9.70;5.13;;;;;;;4.11;48.14;97713.50;10412915;28;20059;-60
2022/01/17 20:02:59;;;;;;;8.15;4.85;;;;;;;4.11;48.42;97714.38;10409957;28;20032;-60
2022/01/17 20:07:59;;;;;;;9.40;5.20;;;;;;;3.98;48.18;97705.50;10371673;28;20065;-59
2022/01/17 20:12:58;;;;;;;9.45;4.63;;;;;;;4.17;47.91;97724.78;10371492;28;20064;-60
2022/01/17 20:17:58;;;;;;;6.78;4.35;;;;;;;4.23;47.47;97732.63;10369579;28;20052;-60
2022/01/17 20:22:57;;;;;;;;;;;;;;;4.35;47.50;97729.47;10371809;28;20067;-60
2022/01/17 20:27:56;;;;;;;11.27;5.50;;;;;;;4.34;47.20;97727.75;10371359;28;19919;-60
2022/01/17 20:32:55;;;;;;;11.85;5.70;;;;;;;4.33;47.51;97725.16;10385053;28;20504;-59
2022/01/17 20:37:53;;;;;;;8.23;4.80;;;;;;;4.25;47.64;97728.41;10412245;28;20028;-59
2022/01/17 20:42:53;;;;;;;8.57;4.50;;;;;;;4.39;47.88;97715.03;10411696;28;20013;-59
2022/01/17 20:47:52;;;;;;;7.88;4.00;;;;;;;4.42;47.81;97720.22;10411158;28;20516;-60
2022/01/17 20:52:51;;;;;;;7.72;4.43;;;;;;;4.50;48.12;97734.97;10412113;28;20480;-59
2022/01/17 20:57:50;;;;;;;8.88;4.63;;;;;;;4.47;48.24;97728.88;10411141;28;20064;-59
2022/01/17 21:02:49;;;;;;;7.68;4.22;;;;;;;4.49;48.39;97740.94;10411747;28;20068;-59
2022/01/17 21:07:49;;;;;;;13.68;5.47;;;;;;;4.52;49.20;97752.13;10452843;28;20085;-59
2022/01/17 21:12:48;;;;;;;7.40;4.20;;;;;;;4.48;49.83;97761.47;10452368;28;20063;-59
2022/01/17 21:17:48;;;;;;;7.85;3.92;;;;;;;4.43;50.40;97783.59;10452456;28;20055;-59
2022/01/17 21:22:50;;;;;;;9.23;4.25;;;;;;;4.40;51.81;97778.41;10452135;28;20072;-59
2022/01/17 21:27:50;;;;;;;7.28;4.07;;;;;;;4.34;53.77;97784.28;10452111;28;20060;-59
2022/01/17 21:32:49;;;;;;;9.20;4.90;;;;;;;4.17;56.24;97796.69;10454495;28;20087;-59
2022/01/17 21:37:48;;;;;;;9.95;6.13;;;;;;;4.01;59.00;97804.84;10460510;28;20089;-59
2022/01/17 21:42:47;;;;;;;9.23;5.65;;;;;;;3.83;60.07;97811.25;10447868;28;20037;-59
2022/01/17 21:47:46;;;;;;;11.77;6.78;;;;;;;3.78;61.09;97817.09;10437999;28;20027;-59
2022/01/17 21:52:45;;;;;;;11.05;5.78;;;;;;;3.60;61.98;97807.19;10438164;28;20640;-60
2022/01/17 21:57:44;;;;;;;9.40;5.78;;;;;;;3.61;62.16;97796.97;10359132;28;20060;-59
2022/01/17 22:02:44;;;;;;;8.60;5.25;;;;;;;3.51;62.26;97796.69;10377206;28;20080;-59
2022/01/17 22:07:44;;;;;;;9.38;5.78;;;;;;;3.53;62.27;97795.03;10417763;28;20064;-59
2022/01/17 22:12:43;;;;;;;13.48;7.03;;;;;;;3.37;62.71;97803.97;10416894;28;20075;-59
2022/01/17 22:17:47;;;;;;;20.95;12.38;;;;;;;3.32;62.31;97796.16;10417251;28;20032;-59
2022/01/17 22:22:46;;;;;;;11.10;7.72;;;;;;;3.48;62.14;97799.16;10416450;28;20482;-59
2022/01/17 22:27:45;;;;;;;9.98;6.10;;;;;;;3.59;62.02;97787.50;10398480;28;20594;-59
2022/01/17 22:32:44;;;;;;;12.23;6.32;;;;;;;3.68;62.09;97786.84;10416421;28;20141;-59
2022/01/17 22:37:43;;;;;;;12.13;6.22;;;;;;;3.76;61.86;97765.72;10416619;28;20032;-59
2022/01/17 22:42:42;;;;;;;14.75;11.77;;;;;;;3.67;61.27;97791.13;10416165;28;20601;-60
2022/01/17 22:47:41;;;;;;;13.15;8.07;;;;;;;3.64;61.55;97779.09;10415538;28;20678;-59
2022/01/17 22:52:40;;;;;;;11.25;7.15;;;;;;;3.62;61.67;97790.16;10415628;28;20028;-59
2022/01/17 22:57:40;;;;;;;7.75;4.88;;;;;;;3.40;60.97;97815.22;10415982;28;20424;-59
2022/01/17 23:02:40;;;;;;;8.20;4.80;;;;;;;3.51;60.75;97812.94;10415209;28;20483;-60
2022/01/17 23:07:38;;;;;;;;;;;;;;;3.62;59.88;97816.66;10414976;28;20079;-59
2022/01/17 23:12:37;;;;;;;8.35;5.20;;;;;;;3.78;58.74;97792.28;10413972;28;19915;-59
2022/01/17 23:17:39;;;;;;;7.72;5.32;;;;;;;3.89;58.36;97801.97;10411189;28;20067;-59
2022/01/17 23:22:38;;;;;;;7.22;3.97;;;;;;;3.92;58.15;97823.47;10410882;28;20064;-59
2022/01/17 23:27:37;;;;;;;6.00;2.85;;;;;;;3.90;57.32;97832.81;10412796;28;20036;-59
2022/01/17 23:37:53;;;;;;;5.78;3.42;;;;;;;4.00;55.69;97854.47;10414863;28;20064;-59
2022/01/17 23:42:52;;;;;;;8.13;4.90;;;;;;;4.12;55.23;97859.03;10414396;28;20104;-59
2022/01/17 23:47:51;;;;;;;4.80;3.20;;;;;;;4.22;54.85;97866.16;10413657;28;20111;-59
2022/01/17 23:52:52;;;;;;;7.35;3.92;;;;;;;4.34;55.24;97851.06;10395032;28;20040;-59
2022/01/17 23:57:59;;;;;;;6.78;4.40;;;;;;;4.42;55.36;97858.97;10413744;28;20514;-59
